createdAt,value
2023-04-07T00:01:48.105Z,6.80
2023-04-07T00:04:14.871Z,6.80
2023-04-07T00:06:43.364Z,6.90
2023-04-07T00:09:11.158Z,6.80
2023-04-07T00:11:38.790Z,6.80
2023-04-07T00:14:05.603Z,6.80
2023-04-07T00:16:32.169Z,6.80
2023-04-07T00:18:58.770Z,6.90
2023-04-07T00:21:27.071Z,6.80
2023-04-07T00:23:53.859Z,6.90
2023-04-07T00:26:21.034Z,6.90
2023-04-07T00:28:47.676Z,6.90
2023-04-07T00:31:14.468Z,6.90
2023-04-07T00:33:41.025Z,6.90
2023-04-07T00:36:07.615Z,6.90
2023-04-07T00:38:34.176Z,6.90
2023-04-07T00:41:01.254Z,6.90
2023-04-07T00:43:27.833Z,6.90
2023-04-07T00:45:54.768Z,6.90
2023-04-07T00:48:21.786Z,6.90
2023-04-07T00:50:48.427Z,6.90
2023-04-07T00:53:15.609Z,6.90
2023-04-07T00:55:42.254Z,6.90
2023-04-07T00:58:09.387Z,6.90
2023-04-07T01:00:42.490Z,6.90
2023-04-07T01:03:13.927Z,6.90
2023-04-07T01:05:55.558Z,6.90
2023-04-07T01:08:30.673Z,6.90
2023-04-07T01:11:21.301Z,6.90
2023-04-07T01:13:52.221Z,6.90
2023-04-07T01:16:35.825Z,6.90
2023-04-07T01:19:28.675Z,6.80
2023-04-07T01:21:58.255Z,6.80
2023-04-07T01:24:36.785Z,6.90
2023-04-07T01:27:25.250Z,6.90
2023-04-07T01:29:53.766Z,6.90
2023-04-07T01:32:20.802Z,6.90
2023-04-07T01:34:49.738Z,6.90
2023-04-07T01:37:17.468Z,6.90
2023-04-07T01:39:44.476Z,6.90
2023-04-07T01:42:12.317Z,6.90
2023-04-07T01:44:40.765Z,6.90
2023-04-07T01:47:07.695Z,6.90
2023-04-07T01:49:36.480Z,6.80
2023-04-07T01:52:04.467Z,6.80
2023-04-07T01:54:31.481Z,6.90
2023-04-07T01:56:58.027Z,6.80
2023-04-07T01:59:25.261Z,6.90
2023-04-07T02:01:51.919Z,6.80
2023-04-07T02:04:29.182Z,6.80
2023-04-07T02:07:00.905Z,6.80
2023-04-07T02:09:31.544Z,6.80
2023-04-07T02:12:01.855Z,6.80
2023-04-07T02:14:29.370Z,6.80
2023-04-07T02:16:56.754Z,6.80
2023-04-07T02:19:23.559Z,6.70
2023-04-07T02:21:52.243Z,6.80
2023-04-07T02:24:21.914Z,6.80
2023-04-07T02:26:48.925Z,6.80
2023-04-07T02:29:15.555Z,6.80
2023-04-07T02:31:42.219Z,6.80
2023-04-07T02:34:08.802Z,6.80
2023-04-07T02:36:35.417Z,6.80
2023-04-07T02:39:02.061Z,6.80
2023-04-07T02:41:28.635Z,6.80
2023-04-07T02:43:55.408Z,6.80
2023-04-07T02:46:22.119Z,6.80
2023-04-07T02:48:48.606Z,6.70
2023-04-07T02:51:15.403Z,6.70
2023-04-07T02:53:41.906Z,6.70
2023-04-07T02:56:08.601Z,6.70
2023-04-07T02:58:35.313Z,6.70
2023-04-07T03:01:01.864Z,6.70
2023-04-07T03:03:28.539Z,6.70
2023-04-07T03:05:55.161Z,6.70
2023-04-07T03:08:21.694Z,6.70
2023-04-07T03:10:48.194Z,6.70
2023-04-07T03:13:16.490Z,6.70
2023-04-07T03:15:43.962Z,6.70
2023-04-07T03:18:11.450Z,6.70
2023-04-07T03:20:38.315Z,6.70
2023-04-07T03:23:04.819Z,6.60
2023-04-07T03:25:31.342Z,6.70
2023-04-07T03:27:57.941Z,6.70
2023-04-07T03:30:24.892Z,6.70
2023-04-07T03:32:51.546Z,6.70
2023-04-07T03:35:18.275Z,6.70
2023-04-07T03:37:44.913Z,6.70
2023-04-07T03:40:11.874Z,6.70
2023-04-07T03:42:38.431Z,6.70
2023-04-07T03:45:05.467Z,6.80
2023-04-07T03:47:32.004Z,6.70
2023-04-07T03:49:58.603Z,6.70
2023-04-07T03:52:25.210Z,6.70
2023-04-07T03:54:51.805Z,6.70
2023-04-07T03:57:18.344Z,6.80
2023-04-07T03:59:45.075Z,6.80
2023-04-07T04:02:11.932Z,6.70
2023-04-07T04:04:38.605Z,6.70
2023-04-07T04:07:05.247Z,6.70
2023-04-07T04:09:31.934Z,6.70
2023-04-07T04:11:58.482Z,6.60
2023-04-07T04:14:25.224Z,6.70
2023-04-07T04:16:51.836Z,6.70
2023-04-07T04:19:18.494Z,6.70
2023-04-07T04:21:45.054Z,6.70
2023-04-07T04:24:11.776Z,6.70
2023-04-07T04:26:38.322Z,6.70
2023-04-07T04:29:04.887Z,6.70
2023-04-07T04:31:31.541Z,6.70
2023-04-07T04:33:58.091Z,6.80
2023-04-07T04:36:24.740Z,6.70
2023-04-07T04:38:51.641Z,6.80
2023-04-07T04:41:18.181Z,6.70
2023-04-07T04:43:45.316Z,6.70
2023-04-07T04:46:12.005Z,6.70
2023-04-07T04:48:38.637Z,6.70
2023-04-07T04:51:05.616Z,6.70
2023-04-07T04:53:32.444Z,6.70
2023-04-07T04:55:59.106Z,6.60
2023-04-07T04:58:26.177Z,6.70
2023-04-07T05:00:57.995Z,6.70
2023-04-07T05:03:27.877Z,6.60
2023-04-07T05:05:54.570Z,6.70
2023-04-07T05:08:21.295Z,6.70
2023-04-07T05:10:47.842Z,6.70
2023-04-07T05:13:14.590Z,6.70
2023-04-07T05:15:41.935Z,6.70
2023-04-07T05:18:08.500Z,6.70
2023-04-07T05:20:35.176Z,6.70
2023-04-07T05:23:01.836Z,6.70
2023-04-07T05:25:28.337Z,6.70
2023-04-07T05:27:54.920Z,6.70
2023-04-07T05:30:21.576Z,6.70
2023-04-07T05:32:48.139Z,6.70
2023-04-07T05:35:15.005Z,6.70
2023-04-07T05:37:41.783Z,6.70
2023-04-07T05:40:08.855Z,6.70
2023-04-07T05:42:35.353Z,6.70
2023-04-07T05:45:02.003Z,6.80
2023-04-07T05:47:28.579Z,6.80
2023-04-07T05:49:55.220Z,6.80
2023-04-07T05:52:21.765Z,6.80
2023-04-07T05:54:48.367Z,6.90
2023-04-07T05:57:15.054Z,6.90
2023-04-07T05:59:41.787Z,6.90
2023-04-07T06:02:08.448Z,6.80
2023-04-07T06:04:35.513Z,6.90
2023-04-07T06:07:03.061Z,6.90
2023-04-07T06:09:29.609Z,6.90
2023-04-07T06:11:56.663Z,6.90
2023-04-07T06:14:23.623Z,6.90
2023-04-07T06:16:50.469Z,6.90
2023-04-07T06:19:17.054Z,6.90
2023-04-07T06:21:43.595Z,6.90
2023-04-07T06:24:10.108Z,6.90
2023-04-07T06:26:37.003Z,6.90
2023-04-07T06:29:03.591Z,6.90
2023-04-07T06:31:30.254Z,6.90
2023-04-07T06:33:56.877Z,6.90
2023-04-07T06:36:23.626Z,6.90
2023-04-07T06:38:50.994Z,6.90
2023-04-07T06:41:17.549Z,6.90
2023-04-07T06:43:46.805Z,6.90
2023-04-07T06:46:13.662Z,7.00
2023-04-07T06:48:40.411Z,7.00
2023-04-07T06:51:07.002Z,7.10
2023-04-07T06:53:33.545Z,7.10
2023-04-07T06:56:07.411Z,7.10
2023-04-07T06:58:35.230Z,7.00
2023-04-07T07:01:02.502Z,7.10
2023-04-07T07:03:29.493Z,7.10
2023-04-07T07:05:56.540Z,7.10
2023-04-07T07:08:23.599Z,7.10
2023-04-07T07:10:50.134Z,7.10
2023-04-07T07:13:16.734Z,7.10
2023-04-07T07:15:43.366Z,7.20
2023-04-07T07:18:10.037Z,7.10
2023-04-07T07:20:36.540Z,7.10
2023-04-07T07:23:03.180Z,7.10
2023-04-07T07:25:29.846Z,7.20
2023-04-07T07:27:56.434Z,7.20
2023-04-07T07:30:24.126Z,7.20
2023-04-07T07:32:51.271Z,7.30
2023-04-07T07:35:17.839Z,7.40
2023-04-07T07:37:44.643Z,7.40
2023-04-07T07:40:11.417Z,7.50
2023-04-07T07:42:38.683Z,7.50
2023-04-07T07:45:06.059Z,7.50
2023-04-07T07:47:33.208Z,7.50
2023-04-07T07:49:59.794Z,7.60
2023-04-07T07:52:26.348Z,7.60
2023-04-07T07:54:52.912Z,7.60
2023-04-07T07:57:19.482Z,7.70
2023-04-07T07:59:46.556Z,7.80
2023-04-07T08:02:13.564Z,7.80
2023-04-07T08:04:40.258Z,7.80
2023-04-07T08:07:06.867Z,7.80
2023-04-07T08:09:33.432Z,7.80
2023-04-07T08:12:00.079Z,7.80
2023-04-07T08:14:26.725Z,7.70
2023-04-07T08:16:53.301Z,7.70
2023-04-07T08:19:19.882Z,7.80
2023-04-07T08:21:46.459Z,7.80
2023-04-07T08:24:12.992Z,7.90
2023-04-07T08:26:39.583Z,7.90
2023-04-07T08:29:06.125Z,7.90
2023-04-07T08:31:32.798Z,8.00
2023-04-07T08:33:59.435Z,8.00
2023-04-07T08:36:27.824Z,8.00
2023-04-07T08:38:54.545Z,8.10
2023-04-07T08:41:42.331Z,8.10
2023-04-07T08:44:10.398Z,8.10
2023-04-07T08:46:40.216Z,8.10
2023-04-07T08:49:14.160Z,8.20
2023-04-07T08:51:51.071Z,8.10
2023-04-07T08:54:22.512Z,8.20
2023-04-07T08:56:49.108Z,8.10
2023-04-07T08:59:18.529Z,8.10
2023-04-07T09:01:46.485Z,8.00
2023-04-07T09:04:13.849Z,8.00
2023-04-07T09:06:40.412Z,8.10
2023-04-07T09:09:06.936Z,8.10
2023-04-07T09:11:39.901Z,8.10
2023-04-07T09:14:07.381Z,8.10
2023-04-07T09:16:34.000Z,8.10
2023-04-07T09:19:00.616Z,8.10
2023-04-07T09:21:27.262Z,8.20
2023-04-07T09:23:53.996Z,8.20
2023-04-07T09:26:28.083Z,8.30
2023-04-07T09:28:57.306Z,8.30
2023-04-07T09:31:26.479Z,8.40
2023-04-07T09:33:53.373Z,8.40
2023-04-07T09:36:20.367Z,8.40
2023-04-07T09:38:46.958Z,8.50
2023-04-07T09:41:15.944Z,8.60
2023-04-07T09:43:45.557Z,8.60
2023-04-07T09:46:13.591Z,8.60
2023-04-07T09:48:41.040Z,8.60
2023-04-07T09:51:17.851Z,8.60
2023-04-07T09:53:49.862Z,8.60
2023-04-07T09:56:18.114Z,8.70
2023-04-07T09:58:46.993Z,8.70
2023-04-07T10:01:16.860Z,8.70
2023-04-07T10:03:44.518Z,8.70
2023-04-07T10:06:11.854Z,8.70
2023-04-07T10:08:41.444Z,8.70
2023-04-07T10:11:08.249Z,8.70
2023-04-07T10:13:37.190Z,8.70
2023-04-07T10:16:06.483Z,8.70
2023-04-07T10:18:34.255Z,8.70
2023-04-07T10:21:03.432Z,8.60
2023-04-07T10:24:03.643Z,8.60
2023-04-07T10:26:34.626Z,8.60
2023-04-07T10:29:08.758Z,8.70
2023-04-07T10:31:36.986Z,8.70
2023-04-07T10:34:03.592Z,8.80
2023-04-07T10:36:30.622Z,8.80
2023-04-07T10:39:09.046Z,8.90
2023-04-07T10:41:36.942Z,8.90
2023-04-07T10:44:04.789Z,8.90
2023-04-07T10:47:05.317Z,9.00
2023-04-07T10:49:34.471Z,9.00
2023-04-07T10:52:13.337Z,9.00
2023-04-07T10:54:40.669Z,9.00
2023-04-07T10:57:12.958Z,9.10
2023-04-07T10:59:46.762Z,9.10
2023-04-07T11:02:17.441Z,9.20
2023-04-07T11:04:46.729Z,9.30
2023-04-07T11:07:13.940Z,9.30
2023-04-07T11:09:41.329Z,9.50
2023-04-07T11:12:08.529Z,9.60
2023-04-07T11:14:37.542Z,9.50
2023-04-07T11:17:04.566Z,9.50
2023-04-07T11:19:33.986Z,9.60
2023-04-07T11:22:26.250Z,9.60
2023-04-07T11:24:56.144Z,9.70
2023-04-07T11:27:22.923Z,9.70
2023-04-07T11:29:50.127Z,9.70
2023-04-07T11:32:24.986Z,9.70
2023-04-07T11:34:52.294Z,9.80
2023-04-07T11:37:28.759Z,9.80
2023-04-07T11:39:56.824Z,9.90
2023-04-07T11:42:40.101Z,9.90
2023-04-07T11:45:17.020Z,9.90
2023-04-07T11:47:43.618Z,9.90
2023-04-07T11:50:11.708Z,10.00
2023-04-07T11:52:48.514Z,10.10
2023-04-07T11:55:22.843Z,10.00
2023-04-07T11:57:51.631Z,10.00
2023-04-07T12:00:19.153Z,10.00
2023-04-07T12:02:46.328Z,9.90
2023-04-07T12:05:13.308Z,9.90
2023-04-07T12:07:41.819Z,9.80
2023-04-07T12:10:22.072Z,9.80
2023-04-07T12:12:49.140Z,9.80
2023-04-07T12:15:16.465Z,9.90
2023-04-07T12:17:47.933Z,9.90
2023-04-07T12:20:15.878Z,9.90
2023-04-07T12:22:42.623Z,9.90
2023-04-07T12:25:09.339Z,10.00
2023-04-07T12:27:42.852Z,10.10
2023-04-07T12:30:10.615Z,10.10
2023-04-07T12:32:37.747Z,10.20
2023-04-07T12:35:05.360Z,10.30
2023-04-07T12:37:33.114Z,10.40
2023-04-07T12:40:00.253Z,10.40
2023-04-07T12:42:27.116Z,10.60
2023-04-07T12:44:53.834Z,10.80
2023-04-07T12:47:20.693Z,11.00
2023-04-07T12:49:49.584Z,11.20
2023-04-07T12:52:16.721Z,11.40
2023-04-07T12:54:44.349Z,11.80
2023-04-07T12:57:11.405Z,12.10
2023-04-07T12:59:38.038Z,12.40
2023-04-07T13:02:04.824Z,12.80
2023-04-07T13:04:31.747Z,12.90
2023-04-07T13:06:59.526Z,13.00
2023-04-07T13:09:26.208Z,12.90
2023-04-07T13:11:52.772Z,12.90
2023-04-07T13:14:19.413Z,12.80
2023-04-07T13:16:46.320Z,12.70
2023-04-07T13:19:13.008Z,12.70
2023-04-07T13:24:09.028Z,12.70
2023-04-07T13:26:35.501Z,13.00
2023-04-07T13:29:02.039Z,13.20
2023-04-07T13:31:28.598Z,13.70
2023-04-07T13:33:55.092Z,14.00
2023-04-07T13:36:23.313Z,14.00
2023-04-07T13:38:50.100Z,14.20
2023-04-07T13:41:16.725Z,14.30
2023-04-07T13:43:43.296Z,14.50
2023-04-07T13:48:46.601Z,14.40
2023-04-07T13:51:13.046Z,14.20
2023-04-07T13:53:39.593Z,14.00
2023-04-07T13:56:08.351Z,13.60
2023-04-07T13:58:35.434Z,13.20
2023-04-07T14:01:02.842Z,13.00
2023-04-07T14:03:29.803Z,12.70
2023-04-07T14:06:01.117Z,12.60
2023-04-07T14:08:28.107Z,12.60
2023-04-07T14:10:54.743Z,12.50
2023-04-07T14:13:21.416Z,12.60
2023-04-07T14:15:48.663Z,12.60
2023-04-07T14:18:15.415Z,12.70
2023-04-07T14:20:42.100Z,12.80
2023-04-07T14:23:08.657Z,12.90
2023-04-07T14:25:35.446Z,13.10
2023-04-07T14:28:02.306Z,13.20
2023-04-07T14:30:30.665Z,13.40
2023-04-07T14:32:57.256Z,13.40
2023-04-07T14:35:23.887Z,13.50
2023-04-07T14:37:52.352Z,13.50
2023-04-07T14:40:21.223Z,13.50
2023-04-07T14:42:48.821Z,13.50
2023-04-07T14:45:17.707Z,13.50
2023-04-07T14:47:44.423Z,13.30
2023-04-07T14:50:11.406Z,13.30
2023-04-07T14:52:38.027Z,13.20
2023-04-07T14:55:04.878Z,13.10
2023-04-07T14:57:31.455Z,13.00
2023-04-07T14:59:57.988Z,13.00
2023-04-07T15:02:24.832Z,13.00
2023-04-07T15:04:51.548Z,12.80
2023-04-07T15:07:18.159Z,12.70
2023-04-07T15:09:46.458Z,12.70
2023-04-07T15:12:12.970Z,12.70
2023-04-07T15:14:39.833Z,12.80
2023-04-07T15:17:06.345Z,12.80
2023-04-07T15:19:32.839Z,12.80
2023-04-07T15:21:59.392Z,12.70
2023-04-07T15:24:26.257Z,12.70
2023-04-07T15:26:52.825Z,12.70
2023-04-07T15:29:19.412Z,12.80
2023-04-07T15:31:45.995Z,12.80
2023-04-07T15:34:12.843Z,12.80
2023-04-07T15:36:39.586Z,12.80
2023-04-07T15:39:06.964Z,12.80
2023-04-07T15:41:34.025Z,12.80
2023-04-07T15:44:00.656Z,12.70
2023-04-07T15:46:27.435Z,12.70
2023-04-07T15:48:54.029Z,12.60
2023-04-07T15:51:20.736Z,12.50
2023-04-07T15:53:47.532Z,12.40
2023-04-07T15:56:14.361Z,12.40
2023-04-07T15:58:40.994Z,12.40
2023-04-07T16:01:08.197Z,12.40
2023-04-07T16:03:34.954Z,12.30
2023-04-07T16:06:01.618Z,12.30
2023-04-07T16:08:28.149Z,12.20
2023-04-07T16:10:54.685Z,12.20
2023-04-07T16:13:21.272Z,12.20
2023-04-07T16:15:47.809Z,12.20
2023-04-07T16:18:14.386Z,12.20
2023-04-07T16:20:41.026Z,12.30
2023-04-07T16:23:07.803Z,12.30
2023-04-07T16:25:35.706Z,12.30
2023-04-07T16:28:02.300Z,12.20
2023-04-07T16:30:28.899Z,12.20
2023-04-07T16:32:55.494Z,12.10
2023-04-07T16:35:22.136Z,12.00
2023-04-07T16:37:49.996Z,11.90
2023-04-07T16:40:16.681Z,11.90
2023-04-07T16:42:43.237Z,11.70
2023-04-07T16:45:10.292Z,11.70
2023-04-07T16:47:37.816Z,11.60
2023-04-07T16:50:05.248Z,11.60
2023-04-07T16:52:31.866Z,11.50
2023-04-07T16:54:59.236Z,11.50
2023-04-07T16:57:25.869Z,11.50
2023-04-07T16:59:52.703Z,11.50
2023-04-07T17:02:19.390Z,11.50
2023-04-07T17:04:46.097Z,11.40
2023-04-07T17:07:12.713Z,11.30
2023-04-07T17:09:39.607Z,11.30
2023-04-07T17:12:06.698Z,11.10
2023-04-07T17:14:33.581Z,11.00
2023-04-07T17:17:00.317Z,10.90
2023-04-07T17:19:27.240Z,10.80
2023-04-07T17:21:53.852Z,10.70
2023-04-07T17:24:20.428Z,10.60
2023-04-07T17:26:47.581Z,10.50
2023-04-07T17:29:15.620Z,10.40
2023-04-07T17:31:42.353Z,10.30
2023-04-07T17:34:10.440Z,10.20
2023-04-07T17:36:37.611Z,10.10
2023-04-07T17:39:04.794Z,10.00
2023-04-07T17:41:34.680Z,9.90
2023-04-07T17:44:01.911Z,9.70
2023-04-07T17:46:28.605Z,9.70
2023-04-07T17:48:57.489Z,9.50
2023-04-07T17:51:25.137Z,9.40
2023-04-07T17:53:53.415Z,9.30
2023-04-07T17:56:20.782Z,9.30
2023-04-07T17:58:47.649Z,9.20
2023-04-07T18:01:14.837Z,9.20
2023-04-07T18:03:41.700Z,9.20
2023-04-07T18:06:08.573Z,9.20
2023-04-07T18:08:35.364Z,9.20
2023-04-07T18:11:01.860Z,9.20
2023-04-07T18:13:28.464Z,9.20
2023-04-07T18:15:55.137Z,9.20
2023-04-07T18:18:21.820Z,9.30
2023-04-07T18:20:49.738Z,9.30
2023-04-07T18:23:16.317Z,9.30
2023-04-07T18:25:42.900Z,9.40
2023-04-07T18:28:09.852Z,9.40
2023-04-07T18:30:37.312Z,9.40
2023-04-07T18:33:04.008Z,9.40
2023-04-07T18:35:30.663Z,9.50
2023-04-07T18:37:58.971Z,9.60
2023-04-07T18:40:25.715Z,9.60
2023-04-07T18:42:52.763Z,9.60
2023-04-07T18:45:19.404Z,9.60
2023-04-07T18:47:46.014Z,9.60
2023-04-07T18:50:12.601Z,9.60
2023-04-07T18:52:39.379Z,9.60
2023-04-07T18:55:06.880Z,9.60
2023-04-07T18:57:33.653Z,9.60
2023-04-07T19:00:00.217Z,9.60
2023-04-07T19:02:27.205Z,9.50
2023-04-07T19:04:53.978Z,9.50
2023-04-07T19:07:20.521Z,9.40
2023-04-07T19:09:51.191Z,9.40
2023-04-07T19:12:17.698Z,9.30
2023-04-07T19:14:44.382Z,9.30
2023-04-07T19:17:11.720Z,9.20
2023-04-07T19:19:38.272Z,9.10
2023-04-07T19:22:04.875Z,9.10
2023-04-07T19:24:31.489Z,9.00
2023-04-07T19:26:58.314Z,9.00
2023-04-07T19:29:24.913Z,8.90
2023-04-07T19:31:52.886Z,8.90
2023-04-07T19:34:19.501Z,8.80
2023-04-07T19:36:46.252Z,8.80
2023-04-07T19:39:12.847Z,8.80
2023-04-07T19:41:39.871Z,8.70
2023-04-07T19:44:06.397Z,8.70
2023-04-07T19:46:33.749Z,8.70
2023-04-07T19:49:00.330Z,8.70
2023-04-07T19:51:27.571Z,8.70
2023-04-07T19:53:54.144Z,8.70
2023-04-07T19:56:20.715Z,8.70
2023-04-07T19:58:47.465Z,8.70
2023-04-07T20:01:18.109Z,8.60
2023-04-07T20:03:45.187Z,8.60
2023-04-07T20:06:14.398Z,8.60
2023-04-07T20:08:41.750Z,8.50
2023-04-07T20:11:11.589Z,8.50
2023-04-07T20:13:39.132Z,8.50
2023-04-07T20:16:05.751Z,8.50
2023-04-07T20:18:32.759Z,8.50
2023-04-07T20:21:03.608Z,8.40
2023-04-07T20:23:30.386Z,8.40
2023-04-07T20:25:56.978Z,8.40
2023-04-07T20:28:24.246Z,8.40
2023-04-07T20:30:51.458Z,8.40
2023-04-07T20:33:18.287Z,8.40
2023-04-07T20:35:44.910Z,8.30
2023-04-07T20:38:11.568Z,8.30
2023-04-07T20:40:38.257Z,8.30
2023-04-07T20:43:05.441Z,8.20
2023-04-07T20:45:33.252Z,8.20
2023-04-07T20:48:00.009Z,8.20
2023-04-07T20:50:26.862Z,8.20
2023-04-07T20:52:53.768Z,8.20
2023-04-07T20:55:20.959Z,8.20
2023-04-07T20:57:48.337Z,8.10
2023-04-07T21:00:16.355Z,8.10
2023-04-07T21:02:44.441Z,8.10
2023-04-07T21:05:11.215Z,8.10
2023-04-07T21:07:37.805Z,8.10
2023-04-07T21:10:05.044Z,8.10
2023-04-07T21:12:31.869Z,8.00
2023-04-07T21:14:58.464Z,8.00
2023-04-07T21:17:25.239Z,8.00
2023-04-07T21:19:52.209Z,8.00
2023-04-07T21:22:18.749Z,7.90
2023-04-07T21:24:45.268Z,7.90
2023-04-07T21:27:12.136Z,7.90
2023-04-07T21:29:40.957Z,7.90
2023-04-07T21:32:08.022Z,7.80
2023-04-07T21:34:34.586Z,7.80
2023-04-07T21:37:01.298Z,7.80
2023-04-07T21:39:27.873Z,7.70
2023-04-07T21:41:54.418Z,7.70
2023-04-07T21:44:21.366Z,7.60
2023-04-07T21:46:48.348Z,7.50
2023-04-07T21:49:17.748Z,7.50
2023-04-07T21:51:44.209Z,7.40
2023-04-07T21:54:10.823Z,7.30
2023-04-07T21:56:37.369Z,7.30
2023-04-07T21:59:04.149Z,7.30
2023-04-07T22:01:30.858Z,7.30
2023-04-07T22:03:57.709Z,7.30
2023-04-07T22:06:24.400Z,7.40
2023-04-07T22:09:00.599Z,7.40
2023-04-07T22:11:28.011Z,7.40
2023-04-07T22:13:54.668Z,7.50
2023-04-07T22:16:21.442Z,7.60
2023-04-07T22:18:48.495Z,7.60
2023-04-07T22:21:15.383Z,7.60
2023-04-07T22:23:41.982Z,7.70
2023-04-07T22:26:08.644Z,7.70
2023-04-07T22:28:35.184Z,7.70
2023-04-07T22:31:02.296Z,7.70
2023-04-07T22:33:29.056Z,7.80
2023-04-07T22:35:55.639Z,7.80
2023-04-07T22:38:24.312Z,7.80
2023-04-07T22:40:50.927Z,7.90
2023-04-07T22:43:17.595Z,7.90
2023-04-07T22:45:44.150Z,7.90
2023-04-07T22:48:10.829Z,7.90
2023-04-07T22:50:37.519Z,8.00
2023-04-07T22:53:04.217Z,7.90
2023-04-07T22:55:30.751Z,8.00
2023-04-07T22:57:57.319Z,8.00
2023-04-07T23:00:23.894Z,8.00
2023-04-07T23:02:50.897Z,8.00
2023-04-07T23:05:17.599Z,8.00
2023-04-07T23:07:45.306Z,8.00
2023-04-07T23:10:12.089Z,8.10
2023-04-07T23:12:38.929Z,8.10
2023-04-07T23:15:06.274Z,8.10
2023-04-07T23:17:33.255Z,8.10
2023-04-07T23:19:59.798Z,8.10
2023-04-07T23:22:26.916Z,8.10
2023-04-07T23:24:53.466Z,8.10
2023-04-07T23:27:20.243Z,8.10
2023-04-07T23:29:46.797Z,8.10
2023-04-07T23:32:13.393Z,8.10
2023-04-07T23:34:40.769Z,8.10
2023-04-07T23:37:07.497Z,8.10
2023-04-07T23:39:34.339Z,8.10
2023-04-07T23:42:01.988Z,8.10
2023-04-07T23:44:28.529Z,8.10
2023-04-07T23:46:55.277Z,8.10
2023-04-07T23:49:22.140Z,8.10
2023-04-07T23:51:48.747Z,8.10
2023-04-07T23:54:15.327Z,8.10
2023-04-07T23:56:42.234Z,8.10
2023-04-07T23:59:08.768Z,8.10
